createdAt,value
2022-09-14T00:01:24.880Z,41.07
2022-09-14T00:03:59.181Z,41.31
2022-09-14T00:06:27.034Z,40.53
2022-09-14T00:08:55.239Z,41.10
2022-09-14T00:11:24.472Z,41.19
2022-09-14T00:13:52.315Z,43.11
2022-09-14T00:16:29.001Z,41.76
2022-09-14T00:19:05.973Z,42.80
2022-09-14T00:21:37.579Z,41.76
2022-09-14T00:24:07.237Z,42.84
2022-09-14T00:26:34.618Z,41.91
2022-09-14T00:29:05.755Z,42.15
2022-09-14T00:31:35.095Z,43.15
2022-09-14T00:34:03.829Z,41.19
2022-09-14T00:36:31.904Z,42.96
2022-09-14T00:39:00.638Z,41.67
2022-09-14T00:41:31.955Z,41.58
2022-09-14T00:44:03.729Z,40.64
2022-09-14T00:46:35.859Z,40.67
2022-09-14T00:49:06.714Z,41.06
2022-09-14T00:51:35.635Z,41.07
2022-09-14T00:54:04.043Z,41.41
2022-09-14T00:56:31.352Z,42.06
2022-09-14T00:59:00.904Z,41.76
2022-09-14T01:01:28.675Z,41.23
2022-09-14T01:03:55.517Z,41.80
2022-09-14T01:06:35.460Z,42.57
2022-09-14T01:09:29.488Z,42.70
2022-09-14T01:12:01.988Z,43.25
2022-09-14T01:14:31.889Z,43.42
2022-09-14T01:17:14.768Z,43.16
2022-09-14T01:20:19.780Z,42.77
2022-09-14T01:22:52.842Z,41.88
2022-09-14T01:25:57.951Z,41.88
2022-09-14T01:28:51.673Z,41.87
2022-09-14T01:31:29.550Z,42.46
2022-09-14T01:34:02.092Z,41.44
2022-09-14T01:36:30.948Z,41.46
2022-09-14T01:39:00.879Z,41.11
2022-09-14T01:41:31.514Z,41.09
2022-09-14T01:44:11.865Z,41.49
2022-09-14T01:46:44.106Z,41.49
2022-09-14T01:49:39.523Z,41.49
2022-09-14T01:52:12.853Z,42.00
2022-09-14T01:54:45.939Z,41.78
2022-09-14T01:57:25.153Z,43.05
2022-09-14T01:59:56.388Z,41.72
2022-09-14T02:02:32.514Z,41.89
2022-09-14T02:05:09.538Z,41.61
2022-09-14T02:07:38.053Z,41.47
2022-09-14T02:10:09.210Z,41.59
2022-09-14T02:12:36.600Z,41.39
2022-09-14T02:15:05.629Z,42.44
2022-09-14T02:17:32.573Z,43.73
2022-09-14T02:20:01.935Z,43.38
2022-09-14T02:22:30.608Z,43.23
2022-09-14T02:24:58.332Z,42.98
2022-09-14T02:27:26.112Z,43.25
2022-09-14T02:29:53.852Z,44.08
2022-09-14T02:32:46.987Z,44.97
2022-09-14T02:35:23.021Z,43.50
2022-09-14T02:37:52.559Z,43.52
2022-09-14T02:40:25.453Z,43.68
2022-09-14T02:43:03.412Z,43.88
2022-09-14T02:45:59.701Z,43.46
2022-09-14T02:48:54.388Z,43.85
2022-09-14T02:51:24.079Z,44.21
2022-09-14T02:53:53.662Z,43.44
2022-09-14T02:56:21.580Z,43.83
2022-09-14T02:58:48.527Z,43.70
2022-09-14T03:01:21.168Z,43.52
2022-09-14T03:03:48.094Z,43.52
2022-09-14T03:06:15.708Z,43.19
2022-09-14T03:08:43.250Z,43.93
2022-09-14T03:11:10.583Z,43.35
2022-09-14T03:13:37.854Z,42.94
2022-09-14T03:16:13.031Z,44.61
2022-09-14T03:18:40.747Z,43.46
2022-09-14T03:21:17.652Z,44.53
2022-09-14T03:23:50.541Z,43.75
2022-09-14T03:26:20.192Z,44.13
2022-09-14T03:28:58.398Z,43.39
2022-09-14T03:31:26.637Z,43.45
2022-09-14T03:33:55.204Z,44.20
2022-09-14T03:36:23.054Z,44.64
2022-09-14T03:38:52.159Z,44.01
2022-09-14T03:41:22.429Z,43.41
2022-09-14T03:46:34.600Z,43.34
2022-09-14T03:49:01.397Z,43.88
2022-09-14T03:51:28.208Z,44.05
2022-09-14T03:53:55.009Z,44.71
2022-09-14T03:56:23.379Z,44.33
2022-09-14T03:58:50.927Z,45.12
2022-09-14T04:01:20.721Z,46.17
2022-09-14T04:03:48.481Z,45.07
2022-09-14T04:06:16.863Z,44.77
2022-09-14T04:08:46.024Z,44.27
2022-09-14T04:11:19.126Z,44.28
2022-09-14T04:13:46.341Z,44.60
2022-09-14T04:16:14.030Z,44.34
2022-09-14T04:18:41.237Z,44.18
2022-09-14T04:21:14.390Z,44.31
2022-09-14T04:26:30.088Z,46.13
2022-09-14T04:28:57.643Z,47.03
2022-09-14T04:31:25.364Z,46.37
2022-09-14T04:33:56.123Z,46.46
2022-09-14T04:36:28.289Z,45.98
2022-09-14T04:38:57.628Z,45.96
2022-09-14T04:41:25.492Z,46.47
2022-09-14T04:43:52.963Z,45.10
2022-09-14T04:46:25.233Z,45.80
2022-09-14T04:48:52.207Z,46.11
2022-09-14T04:51:21.620Z,46.43
2022-09-14T04:53:51.922Z,46.38
2022-09-14T04:56:21.716Z,45.53
2022-09-14T04:58:51.861Z,45.59
2022-09-14T05:01:21.387Z,45.59
2022-09-14T05:03:48.899Z,45.34
2022-09-14T05:06:20.008Z,45.95
2022-09-14T05:08:47.482Z,45.47
2022-09-14T05:11:17.646Z,45.24
2022-09-14T05:13:49.526Z,44.50
2022-09-14T05:16:23.259Z,45.15
2022-09-14T05:18:51.180Z,45.54
2022-09-14T05:21:20.208Z,45.07
2022-09-14T05:23:47.521Z,44.38
2022-09-14T05:26:15.244Z,44.87
2022-09-14T05:28:41.938Z,44.70
2022-09-14T05:31:10.983Z,45.02
2022-09-14T05:33:37.737Z,45.36
2022-09-14T05:36:07.295Z,46.38
2022-09-14T05:38:36.062Z,45.92
2022-09-14T05:41:03.511Z,45.25
2022-09-14T05:43:30.438Z,44.68
2022-09-14T05:46:02.532Z,45.49
2022-09-14T05:48:36.513Z,45.14
2022-09-14T05:51:11.117Z,43.98
2022-09-14T05:53:37.916Z,43.76
2022-09-14T05:56:08.337Z,43.60
2022-09-14T05:58:36.991Z,45.45
2022-09-14T06:01:09.372Z,43.70
2022-09-14T06:03:36.394Z,43.64
2022-09-14T06:06:05.721Z,45.69
2022-09-14T06:08:33.206Z,46.14
2022-09-14T06:11:08.140Z,46.82
2022-09-14T06:13:34.940Z,46.39
2022-09-14T06:16:04.253Z,46.43
2022-09-14T06:18:36.439Z,44.49
2022-09-14T06:21:04.413Z,42.78
2022-09-14T06:23:32.004Z,42.63
2022-09-14T06:26:02.236Z,43.25
2022-09-14T06:28:29.664Z,43.75
2022-09-14T06:30:57.101Z,43.07
2022-09-14T06:33:24.463Z,42.46
2022-09-14T06:35:59.483Z,42.53
2022-09-14T06:38:27.627Z,42.10
2022-09-14T06:40:59.338Z,42.42
2022-09-14T06:43:31.844Z,40.44
2022-09-14T06:46:01.637Z,40.56
2022-09-14T06:48:31.153Z,43.00
2022-09-14T06:50:58.239Z,40.57
2022-09-14T06:53:24.968Z,39.32
2022-09-14T06:55:52.284Z,41.59
2022-09-14T06:58:19.296Z,42.67
2022-09-14T07:00:46.628Z,41.23
2022-09-14T07:03:13.626Z,41.79
2022-09-14T07:05:40.358Z,41.93
2022-09-14T07:08:11.430Z,41.03
2022-09-14T07:10:39.031Z,40.84
2022-09-14T07:13:05.756Z,39.49
2022-09-14T07:15:33.320Z,38.33
2022-09-14T07:18:00.312Z,38.68
2022-09-14T07:20:27.037Z,39.43
2022-09-14T07:22:53.830Z,38.58
2022-09-14T07:25:20.730Z,37.83
2022-09-14T07:27:47.504Z,38.04
2022-09-14T07:30:14.315Z,37.83
2022-09-14T07:32:41.136Z,37.09
2022-09-14T07:35:08.389Z,37.93
2022-09-14T07:37:35.084Z,37.21
2022-09-14T07:40:02.272Z,37.31
2022-09-14T07:42:29.108Z,37.66
2022-09-14T07:44:56.858Z,37.93
2022-09-14T07:47:23.946Z,36.48
2022-09-14T07:49:50.649Z,37.40
2022-09-14T07:52:17.489Z,37.45
2022-09-14T07:54:44.542Z,37.30
2022-09-14T07:57:11.326Z,38.29
2022-09-14T07:59:38.444Z,37.38
2022-09-14T08:02:07.647Z,37.84
2022-09-14T08:04:36.089Z,36.80
2022-09-14T08:07:03.535Z,35.93
2022-09-14T08:09:30.342Z,36.58
2022-09-14T08:11:57.906Z,37.15
2022-09-14T08:14:25.387Z,36.46
2022-09-14T08:16:52.504Z,36.42
2022-09-14T08:19:20.910Z,36.95
2022-09-14T08:21:48.245Z,36.11
2022-09-14T08:24:20.665Z,35.40
2022-09-14T08:26:48.882Z,34.78
2022-09-14T08:29:17.424Z,37.74
2022-09-14T08:31:45.825Z,35.98
2022-09-14T08:34:13.384Z,34.47
2022-09-14T08:36:41.686Z,35.14
2022-09-14T08:39:10.865Z,35.89
2022-09-14T08:41:43.236Z,34.97
2022-09-14T08:44:44.404Z,34.54
2022-09-14T08:47:22.353Z,37.18
2022-09-14T08:50:06.473Z,34.73
2022-09-14T08:52:49.552Z,35.55
2022-09-14T08:55:23.170Z,35.26
2022-09-14T08:57:56.709Z,34.50
2022-09-14T09:00:31.909Z,33.47
2022-09-14T09:03:01.874Z,32.81
2022-09-14T09:05:49.888Z,34.28
2022-09-14T09:08:34.495Z,33.03
2022-09-14T09:11:05.723Z,33.84
2022-09-14T09:13:37.944Z,32.99
2022-09-14T09:16:09.278Z,32.31
2022-09-14T09:18:53.573Z,31.43
2022-09-14T09:21:33.218Z,31.62
2022-09-14T09:24:18.206Z,32.01
2022-09-14T09:26:45.144Z,32.67
2022-09-14T09:29:12.249Z,32.45
2022-09-14T09:31:59.153Z,31.71
2022-09-14T09:34:50.096Z,32.62
2022-09-14T09:37:31.506Z,31.14
2022-09-14T09:40:00.388Z,30.91
2022-09-14T09:42:28.331Z,31.29
2022-09-14T09:45:04.016Z,29.44
2022-09-14T09:47:44.043Z,29.31
2022-09-14T09:50:13.669Z,30.44
2022-09-14T09:52:50.635Z,31.64
2022-09-14T09:55:22.716Z,30.71
2022-09-14T09:57:49.449Z,30.85
2022-09-14T10:00:26.237Z,30.91
2022-09-14T10:02:54.763Z,29.63
2022-09-14T10:05:29.138Z,28.58
2022-09-14T10:07:59.672Z,29.76
2022-09-14T10:10:35.468Z,27.89
2022-09-14T10:13:05.230Z,28.72
2022-09-14T10:15:36.761Z,28.55
2022-09-14T10:18:13.142Z,27.28
2022-09-14T10:21:02.504Z,29.31
2022-09-14T10:23:33.382Z,29.00
2022-09-14T10:26:12.057Z,29.44
2022-09-14T10:28:46.646Z,28.56
2022-09-14T10:31:20.926Z,29.38
2022-09-14T10:33:54.495Z,29.02
2022-09-14T10:36:42.787Z,29.72
2022-09-14T10:39:25.864Z,30.08
2022-09-14T10:42:16.578Z,27.51
2022-09-14T10:44:56.736Z,28.42
2022-09-14T10:47:42.478Z,26.63
2022-09-14T10:50:41.265Z,27.04
2022-09-14T10:53:16.778Z,27.23
2022-09-14T10:55:52.830Z,28.43
2022-09-14T10:58:37.145Z,27.39
2022-09-14T11:04:22.042Z,25.97
2022-09-14T11:06:58.484Z,25.31
2022-09-14T11:09:32.790Z,25.08
2022-09-14T11:12:26.907Z,24.55
2022-09-14T11:15:09.122Z,25.08
2022-09-14T11:17:54.349Z,25.10
2022-09-14T11:20:42.607Z,24.96
2022-09-14T11:23:21.758Z,24.73
2022-09-14T11:25:52.892Z,25.11
2022-09-14T11:28:25.476Z,26.12
2022-09-14T11:30:58.307Z,26.28
2022-09-14T11:33:35.718Z,23.74
2022-09-14T11:36:23.327Z,25.66
2022-09-14T11:38:56.271Z,24.85
2022-09-14T11:41:31.375Z,24.92
2022-09-14T11:44:04.456Z,25.44
2022-09-14T11:46:36.563Z,21.91
2022-09-14T11:49:19.285Z,23.07
2022-09-14T11:52:17.611Z,21.67
2022-09-14T11:54:46.815Z,21.28
2022-09-14T11:57:24.103Z,20.08
2022-09-14T11:59:56.673Z,20.03
2022-09-14T12:02:23.640Z,19.88
2022-09-14T12:05:05.820Z,20.27
2022-09-14T12:07:47.661Z,20.02
2022-09-14T12:10:17.416Z,20.04
2022-09-14T12:12:46.677Z,20.07
2022-09-14T12:15:26.198Z,20.75
2022-09-14T12:17:55.156Z,20.31
2022-09-14T12:20:43.382Z,20.22
2022-09-14T12:23:28.535Z,19.96
2022-09-14T12:26:06.680Z,20.11
2022-09-14T12:28:36.089Z,19.70
2022-09-14T12:31:03.045Z,20.17
2022-09-14T12:33:33.047Z,20.02
2022-09-14T12:36:04.410Z,19.99
2022-09-14T12:38:31.111Z,19.43
2022-09-14T12:41:03.611Z,18.87
2022-09-14T12:43:33.223Z,19.41
2022-09-14T12:46:30.495Z,19.43
2022-09-14T12:49:30.718Z,18.61
2022-09-14T12:52:03.555Z,19.96
2022-09-14T12:54:42.923Z,20.28
2022-09-14T12:57:44.789Z,19.48
2022-09-14T13:00:19.980Z,19.94
2022-09-14T13:03:19.851Z,19.96
2022-09-14T13:05:46.581Z,19.17
2022-09-14T13:08:22.246Z,18.75
2022-09-14T13:10:51.481Z,19.44
2022-09-14T13:13:23.646Z,19.66
2022-09-14T13:15:54.056Z,19.78
2022-09-14T13:18:20.778Z,19.23
2022-09-14T13:21:19.920Z,20.34
2022-09-14T13:23:47.734Z,20.18
2022-09-14T13:26:25.779Z,19.15
2022-09-14T13:28:54.790Z,19.71
2022-09-14T13:31:31.874Z,19.66
2022-09-14T13:33:59.757Z,19.42
2022-09-14T13:36:33.712Z,19.91
2022-09-14T13:39:03.249Z,19.26
2022-09-14T13:41:31.191Z,19.63
2022-09-14T13:43:59.742Z,19.39
2022-09-14T13:46:27.664Z,19.10
2022-09-14T13:48:55.877Z,19.10
2022-09-14T13:51:26.011Z,19.12
2022-09-14T13:53:57.812Z,19.45
2022-09-14T13:56:33.910Z,19.44
2022-09-14T13:59:07.501Z,19.28
2022-09-14T14:01:46.400Z,19.43
2022-09-14T14:04:34.862Z,19.63
2022-09-14T14:07:24.236Z,19.28
2022-09-14T14:09:56.799Z,19.53
2022-09-14T14:12:34.842Z,18.97
2022-09-14T14:15:04.759Z,18.95
2022-09-14T14:17:35.542Z,18.93
2022-09-14T14:20:24.269Z,19.14
2022-09-14T14:22:59.864Z,19.14
2022-09-14T14:25:46.095Z,18.65
2022-09-14T14:28:23.592Z,19.23
2022-09-14T14:30:51.332Z,19.38
2022-09-14T14:33:19.354Z,20.03
2022-09-14T14:35:47.624Z,20.31
2022-09-14T14:38:16.193Z,19.97
2022-09-14T14:40:43.939Z,19.80
2022-09-14T14:43:18.663Z,19.97
2022-09-14T14:45:45.896Z,19.62
2022-09-14T14:48:14.138Z,19.82
2022-09-14T14:50:41.307Z,19.63
2022-09-14T14:53:08.891Z,19.30
2022-09-14T14:55:37.525Z,18.96
2022-09-14T14:58:07.319Z,19.24
2022-09-14T15:00:36.803Z,19.42
2022-09-14T15:03:03.762Z,19.23
2022-09-14T15:05:31.356Z,19.60
2022-09-14T15:07:58.298Z,19.62
2022-09-14T15:10:26.842Z,19.38
2022-09-14T15:12:54.732Z,19.32
2022-09-14T15:15:25.523Z,19.55
2022-09-14T15:17:53.465Z,20.13
2022-09-14T15:20:20.941Z,20.63
2022-09-14T15:22:48.425Z,20.86
2022-09-14T15:25:17.796Z,20.74
2022-09-14T15:27:45.247Z,21.02
2022-09-14T15:30:13.310Z,21.50
2022-09-14T15:32:40.244Z,21.85
2022-09-14T15:35:10.779Z,21.26
2022-09-14T15:37:38.583Z,20.94
2022-09-14T15:40:05.995Z,20.76
2022-09-14T15:42:32.912Z,21.27
2022-09-14T15:44:59.680Z,21.04
2022-09-14T15:47:26.541Z,21.33
2022-09-14T15:49:53.335Z,21.80
2022-09-14T15:52:20.206Z,22.55
2022-09-14T15:54:49.347Z,21.68
2022-09-14T15:57:16.383Z,21.78
2022-09-14T15:59:43.248Z,21.44
2022-09-14T16:02:12.109Z,21.53
2022-09-14T16:04:39.651Z,21.23
2022-09-14T16:07:10.067Z,21.36
2022-09-14T16:09:38.891Z,21.37
2022-09-14T16:12:06.780Z,21.72
2022-09-14T16:14:34.131Z,21.87
2022-09-14T16:17:01.111Z,22.25
2022-09-14T16:19:29.106Z,22.48
2022-09-14T16:21:55.846Z,22.56
2022-09-14T16:24:24.450Z,22.65
2022-09-14T16:26:51.961Z,22.27
2022-09-14T16:29:21.129Z,22.57
2022-09-14T16:31:48.849Z,23.20
2022-09-14T16:34:27.215Z,23.56
2022-09-14T16:36:55.419Z,23.96
2022-09-14T16:39:25.173Z,23.52
2022-09-14T16:41:55.753Z,23.52
2022-09-14T16:44:25.661Z,24.49
2022-09-14T16:46:54.327Z,23.99
2022-09-14T16:49:27.089Z,24.59
2022-09-14T16:51:54.803Z,24.20
2022-09-14T16:54:23.798Z,23.87
2022-09-14T16:56:50.797Z,23.77
2022-09-14T16:59:18.299Z,24.26
2022-09-14T17:01:50.791Z,24.87
2022-09-14T17:04:22.081Z,24.67
2022-09-14T17:06:50.567Z,24.58
2022-09-14T17:09:23.878Z,25.14
2022-09-14T17:11:51.533Z,25.18
2022-09-14T17:14:22.053Z,25.35
2022-09-14T17:16:49.473Z,25.72
2022-09-14T17:19:16.929Z,25.80
2022-09-14T17:21:45.984Z,27.25
2022-09-14T17:24:14.389Z,27.95
2022-09-14T17:26:42.572Z,27.03
2022-09-14T17:29:10.170Z,27.27
2022-09-14T17:31:41.231Z,27.84
2022-09-14T17:34:09.906Z,27.21
2022-09-14T17:36:36.680Z,27.61
2022-09-14T17:39:09.214Z,28.00
2022-09-14T17:41:39.080Z,28.67
2022-09-14T17:44:07.248Z,27.82
2022-09-14T17:46:34.665Z,28.36
2022-09-14T17:49:04.702Z,28.10
2022-09-14T17:51:37.024Z,28.73
2022-09-14T17:54:04.390Z,29.96
2022-09-14T17:56:31.534Z,29.17
2022-09-14T17:59:04.671Z,28.59
2022-09-14T18:01:32.166Z,29.18
2022-09-14T18:04:02.354Z,28.99
2022-09-14T18:06:31.991Z,29.82
2022-09-14T18:09:01.596Z,29.37
2022-09-14T18:11:30.147Z,28.99
2022-09-14T18:13:59.309Z,29.10
2022-09-14T18:16:27.762Z,28.82
2022-09-14T18:18:57.231Z,29.35
2022-09-14T18:21:25.238Z,29.17
2022-09-14T18:23:54.480Z,29.03
2022-09-14T18:26:22.627Z,29.26
2022-09-14T18:28:51.039Z,29.38
2022-09-14T18:31:19.786Z,29.33
2022-09-14T18:33:52.259Z,28.80
2022-09-14T18:36:20.820Z,29.00
2022-09-14T18:38:48.594Z,28.74
2022-09-14T18:41:16.916Z,28.46
2022-09-14T18:43:49.998Z,28.00
2022-09-14T18:46:18.711Z,29.52
2022-09-14T18:48:46.631Z,28.93
2022-09-14T18:51:14.397Z,31.85
2022-09-14T18:53:42.116Z,33.17
2022-09-14T18:56:11.988Z,31.97
2022-09-14T18:58:42.192Z,31.58
2022-09-14T19:01:10.579Z,31.47
2022-09-14T19:03:38.938Z,31.00
2022-09-14T19:06:09.766Z,30.50
2022-09-14T19:08:36.686Z,30.92
2022-09-14T19:11:05.737Z,31.66
2022-09-14T19:13:32.781Z,32.44
2022-09-14T19:15:59.609Z,31.65
2022-09-14T19:18:26.430Z,31.44
2022-09-14T19:21:06.539Z,31.92
2022-09-14T19:23:34.986Z,32.32
2022-09-14T19:26:24.031Z,32.15
2022-09-14T19:28:51.757Z,32.28
2022-09-14T19:31:22.073Z,31.59
2022-09-14T19:33:49.560Z,33.09
2022-09-14T19:36:21.689Z,33.41
2022-09-14T19:38:50.831Z,33.00
2022-09-14T19:41:20.225Z,32.75
2022-09-14T19:43:47.310Z,33.35
2022-09-14T19:46:17.251Z,33.39
2022-09-14T19:48:44.896Z,33.46
2022-09-14T19:51:20.538Z,33.29
2022-09-14T19:53:49.593Z,32.92
2022-09-14T19:56:19.156Z,33.35
2022-09-14T19:58:49.316Z,33.09
2022-09-14T20:01:18.467Z,33.38
2022-09-14T20:03:46.121Z,33.82
2022-09-14T20:06:29.723Z,33.48
2022-09-14T20:08:58.599Z,33.04
2022-09-14T20:11:27.787Z,33.60
2022-09-14T20:13:56.933Z,33.30
2022-09-14T20:16:28.723Z,35.30
2022-09-14T20:18:57.155Z,34.55
2022-09-14T20:21:27.391Z,34.66
2022-09-14T20:24:14.521Z,34.68
2022-09-14T20:26:42.676Z,35.33
2022-09-14T20:29:09.665Z,34.97
2022-09-14T20:31:36.698Z,35.07
2022-09-14T20:34:04.444Z,35.06
2022-09-14T20:36:32.422Z,36.01
2022-09-14T20:38:59.838Z,35.29
2022-09-14T20:41:29.952Z,35.49
2022-09-14T20:43:57.865Z,36.18
2022-09-14T20:46:31.859Z,35.86
2022-09-14T20:48:58.921Z,35.15
2022-09-14T20:51:26.585Z,35.43
2022-09-14T20:53:56.150Z,35.12
2022-09-14T20:56:25.946Z,34.78
2022-09-14T20:58:56.154Z,34.72
2022-09-14T21:01:25.073Z,35.27
2022-09-14T21:03:52.533Z,36.53
2022-09-14T21:06:27.538Z,35.84
2022-09-14T21:09:00.853Z,35.62
2022-09-14T21:11:28.446Z,35.42
2022-09-14T21:13:57.409Z,35.75
2022-09-14T21:16:30.115Z,35.81
2022-09-14T21:19:10.294Z,36.23
2022-09-14T21:21:37.964Z,36.09
2022-09-14T21:24:07.054Z,35.74
2022-09-14T21:26:34.145Z,35.27
2022-09-14T21:29:06.359Z,35.11
2022-09-14T21:31:37.808Z,34.63
2022-09-14T21:34:06.513Z,34.58
2022-09-14T21:36:42.625Z,35.05
2022-09-14T21:39:12.863Z,35.41
2022-09-14T21:41:40.888Z,35.78
2022-09-14T21:44:08.205Z,35.38
2022-09-14T21:46:35.157Z,35.17
2022-09-14T21:49:02.240Z,34.81
2022-09-14T21:51:34.887Z,35.41
2022-09-14T21:54:05.121Z,36.29
2022-09-14T21:56:34.690Z,35.88
2022-09-14T21:59:04.424Z,35.88
2022-09-14T22:01:31.317Z,35.87
2022-09-14T22:03:58.487Z,35.91
2022-09-14T22:06:29.851Z,36.15
2022-09-14T22:09:16.076Z,36.60
2022-09-14T22:11:43.317Z,36.16
2022-09-14T22:14:14.671Z,36.06
2022-09-14T22:16:42.292Z,37.01
2022-09-14T22:19:15.073Z,36.63
2022-09-14T22:21:42.584Z,36.37
2022-09-14T22:24:15.884Z,36.90
2022-09-14T22:26:43.772Z,37.59
2022-09-14T22:29:11.244Z,37.53
2022-09-14T22:31:39.981Z,37.71
2022-09-14T22:34:07.615Z,37.99
2022-09-14T22:36:34.891Z,37.71
2022-09-14T22:39:01.732Z,37.99
2022-09-14T22:41:29.133Z,38.31
2022-09-14T22:43:56.715Z,38.66
2022-09-14T22:46:25.131Z,38.71
2022-09-14T22:48:52.990Z,39.51
2022-09-14T22:51:22.920Z,38.96
2022-09-14T22:53:50.892Z,39.78
2022-09-14T22:56:29.915Z,39.21
2022-09-14T22:58:57.687Z,41.60
2022-09-14T23:01:30.523Z,41.16
2022-09-14T23:04:04.393Z,40.23
2022-09-14T23:06:35.287Z,40.58
2022-09-14T23:09:03.297Z,39.72
2022-09-14T23:11:30.934Z,39.42
2022-09-14T23:13:58.889Z,39.00
2022-09-14T23:16:28.497Z,39.34
2022-09-14T23:18:58.397Z,40.07
2022-09-14T23:21:26.337Z,39.55
2022-09-14T23:23:54.728Z,38.92
2022-09-14T23:26:22.458Z,38.90
2022-09-14T23:28:54.621Z,40.56
2022-09-14T23:31:22.235Z,39.77
2022-09-14T23:33:53.638Z,39.82
2022-09-14T23:36:22.312Z,39.74
2022-09-14T23:38:49.635Z,39.60
2022-09-14T23:41:17.735Z,39.33
2022-09-14T23:43:44.750Z,39.46
2022-09-14T23:46:12.706Z,39.33
2022-09-14T23:48:39.765Z,39.22
2022-09-14T23:51:08.783Z,39.55
2022-09-14T23:53:36.282Z,39.31
2022-09-14T23:56:04.280Z,39.38
2022-09-14T23:58:31.404Z,39.58
